sensor_id;sensor_type;location;lat;lon;timestamp;P1;durP1;ratioP1;P2;durP2;ratioP2
77726;SDS011;68312;53.502;10.030;2023-09-19T00:00:45;2.92;;;1.10;;
77726;SDS011;68312;53.502;10.030;2023-09-19T00:03:14;3.83;;;1.17;;
77726;SDS011;68312;53.502;10.030;2023-09-19T00:05:40;5.50;;;1.55;;
77726;SDS011;68312;53.502;10.030;2023-09-19T00:08:09;3.20;;;1.15;;
77726;SDS011;68312;53.502;10.030;2023-09-19T00:10:35;3.35;;;1.27;;
77726;SDS011;68312;53.502;10.030;2023-09-19T00:13:03;2.53;;;1.42;;
77726;SDS011;68312;53.502;10.030;2023-09-19T00:15:37;4.57;;;1.52;;
77726;SDS011;68312;53.502;10.030;2023-09-19T00:18:05;4.20;;;1.98;;
77726;SDS011;68312;53.502;10.030;2023-09-19T00:20:32;3.97;;;1.52;;
77726;SDS011;68312;53.502;10.030;2023-09-19T00:22:59;2.90;;;1.23;;
77726;SDS011;68312;53.502;10.030;2023-09-19T00:25:33;3.42;;;1.50;;
77726;SDS011;68312;53.502;10.030;2023-09-19T00:28:00;3.10;;;1.50;;
77726;SDS011;68312;53.502;10.030;2023-09-19T00:30:26;4.45;;;1.58;;
77726;SDS011;68312;53.502;10.030;2023-09-19T00:32:52;2.50;;;1.10;;
77726;SDS011;68312;53.502;10.030;2023-09-19T00:35:20;3.20;;;1.27;;
77726;SDS011;68312;53.502;10.030;2023-09-19T00:37:50;6.32;;;1.70;;
77726;SDS011;68312;53.502;10.030;2023-09-19T00:40:16;1.65;;;1.10;;
77726;SDS011;68312;53.502;10.030;2023-09-19T00:42:42;3.25;;;1.30;;
77726;SDS011;68312;53.502;10.030;2023-09-19T00:45:10;4.00;;;1.50;;
77726;SDS011;68312;53.502;10.030;2023-09-19T00:47:41;3.40;;;1.60;;
77726;SDS011;68312;53.502;10.030;2023-09-19T00:50:10;3.15;;;1.63;;
77726;SDS011;68312;53.502;10.030;2023-09-19T00:52:39;4.13;;;1.88;;
77726;SDS011;68312;53.502;10.030;2023-09-19T00:55:10;3.35;;;1.50;;
77726;SDS011;68312;53.502;10.030;2023-09-19T00:57:38;3.92;;;1.50;;
77726;SDS011;68312;53.502;10.030;2023-09-19T01:00:05;4.28;;;1.67;;
77726;SDS011;68312;53.502;10.030;2023-09-19T01:02:33;5.88;;;1.92;;
77726;SDS011;68312;53.502;10.030;2023-09-19T01:05:00;5.10;;;2.03;;
77726;SDS011;68312;53.502;10.030;2023-09-19T01:07:27;5.20;;;2.20;;
77726;SDS011;68312;53.502;10.030;2023-09-19T01:09:56;3.88;;;2.10;;
77726;SDS011;68312;53.502;10.030;2023-09-19T01:12:28;5.28;;;2.22;;
77726;SDS011;68312;53.502;10.030;2023-09-19T01:20:59;5.00;;;2.50;;
77726;SDS011;68312;53.502;10.030;2023-09-19T01:29:33;5.05;;;2.20;;
77726;SDS011;68312;53.502;10.030;2023-09-19T01:32:13;6.07;;;2.80;;
77726;SDS011;68312;53.502;10.030;2023-09-19T01:34:50;4.25;;;2.10;;
77726;SDS011;68312;53.502;10.030;2023-09-19T01:37:21;7.78;;;2.53;;
77726;SDS011;68312;53.502;10.030;2023-09-19T01:39:55;5.90;;;2.17;;
77726;SDS011;68312;53.502;10.030;2023-09-19T01:45:24;5.00;;;2.50;;
77726;SDS011;68312;53.502;10.030;2023-09-19T01:48:06;7.90;;;2.20;;
77726;SDS011;68312;53.502;10.030;2023-09-19T01:51:06;4.55;;;2.38;;
77726;SDS011;68312;53.502;10.030;2023-09-19T01:53:55;6.55;;;2.40;;
77726;SDS011;68312;53.502;10.030;2023-09-19T01:56:35;6.60;;;2.40;;
77726;SDS011;68312;53.502;10.030;2023-09-19T01:59:10;3.90;;;2.10;;
77726;SDS011;68312;53.502;10.030;2023-09-19T02:01:42;3.72;;;2.10;;
77726;SDS011;68312;53.502;10.030;2023-09-19T02:04:10;5.28;;;2.40;;
77726;SDS011;68312;53.502;10.030;2023-09-19T02:06:39;5.80;;;2.60;;
77726;SDS011;68312;53.502;10.030;2023-09-19T02:09:07;4.88;;;2.30;;
77726;SDS011;68312;53.502;10.030;2023-09-19T02:11:33;6.20;;;2.40;;
77726;SDS011;68312;53.502;10.030;2023-09-19T02:13:59;6.30;;;2.40;;
77726;SDS011;68312;53.502;10.030;2023-09-19T02:16:25;3.53;;;2.28;;
77726;SDS011;68312;53.502;10.030;2023-09-19T02:18:50;4.90;;;2.30;;
77726;SDS011;68312;53.502;10.030;2023-09-19T02:21:16;5.63;;;2.42;;
77726;SDS011;68312;53.502;10.030;2023-09-19T02:23:46;6.25;;;3.45;;
77726;SDS011;68312;53.502;10.030;2023-09-19T02:26:12;6.20;;;3.15;;
77726;SDS011;68312;53.502;10.030;2023-09-19T02:28:38;4.78;;;2.55;;
77726;SDS011;68312;53.502;10.030;2023-09-19T02:31:04;5.15;;;2.30;;
77726;SDS011;68312;53.502;10.030;2023-09-19T02:33:32;6.90;;;2.70;;
77726;SDS011;68312;53.502;10.030;2023-09-19T02:35:58;6.55;;;2.50;;
77726;SDS011;68312;53.502;10.030;2023-09-19T02:38:24;8.85;;;2.80;;
77726;SDS011;68312;53.502;10.030;2023-09-19T02:40:51;7.35;;;2.53;;
77726;SDS011;68312;53.502;10.030;2023-09-19T02:43:18;8.40;;;2.78;;
77726;SDS011;68312;53.502;10.030;2023-09-19T02:45:44;6.93;;;2.42;;
77726;SDS011;68312;53.502;10.030;2023-09-19T02:48:11;5.20;;;2.50;;
77726;SDS011;68312;53.502;10.030;2023-09-19T02:50:37;6.80;;;2.22;;
77726;SDS011;68312;53.502;10.030;2023-09-19T02:53:03;8.32;;;2.28;;
77726;SDS011;68312;53.502;10.030;2023-09-19T02:55:29;5.35;;;1.77;;
77726;SDS011;68312;53.502;10.030;2023-09-19T02:57:55;3.30;;;1.95;;
77726;SDS011;68312;53.502;10.030;2023-09-19T03:00:20;6.32;;;2.15;;
77726;SDS011;68312;53.502;10.030;2023-09-19T03:02:49;4.68;;;2.20;;
77726;SDS011;68312;53.502;10.030;2023-09-19T03:05:18;4.85;;;2.00;;
77726;SDS011;68312;53.502;10.030;2023-09-19T03:07:46;5.28;;;2.00;;
77726;SDS011;68312;53.502;10.030;2023-09-19T03:10:15;3.63;;;1.90;;
77726;SDS011;68312;53.502;10.030;2023-09-19T03:12:42;3.40;;;1.55;;
77726;SDS011;68312;53.502;10.030;2023-09-19T03:15:08;4.38;;;1.60;;
77726;SDS011;68312;53.502;10.030;2023-09-19T03:17:34;4.82;;;2.08;;
77726;SDS011;68312;53.502;10.030;2023-09-19T03:20:01;6.13;;;1.80;;
77726;SDS011;68312;53.502;10.030;2023-09-19T03:22:27;6.63;;;2.03;;
77726;SDS011;68312;53.502;10.030;2023-09-19T03:24:53;5.35;;;1.90;;
77726;SDS011;68312;53.502;10.030;2023-09-19T03:27:19;5.82;;;1.88;;
77726;SDS011;68312;53.502;10.030;2023-09-19T03:29:45;6.38;;;2.00;;
77726;SDS011;68312;53.502;10.030;2023-09-19T03:32:11;4.72;;;1.55;;
77726;SDS011;68312;53.502;10.030;2023-09-19T03:34:37;7.20;;;1.67;;
77726;SDS011;68312;53.502;10.030;2023-09-19T03:37:07;7.68;;;2.08;;
77726;SDS011;68312;53.502;10.030;2023-09-19T03:39:32;3.47;;;1.67;;
77726;SDS011;68312;53.502;10.030;2023-09-19T03:41:58;3.75;;;1.40;;
77726;SDS011;68312;53.502;10.030;2023-09-19T03:44:23;3.33;;;1.55;;
77726;SDS011;68312;53.502;10.030;2023-09-19T03:46:48;3.22;;;1.30;;
77726;SDS011;68312;53.502;10.030;2023-09-19T03:49:14;3.85;;;1.40;;
77726;SDS011;68312;53.502;10.030;2023-09-19T03:51:39;6.93;;;1.52;;
77726;SDS011;68312;53.502;10.030;2023-09-19T03:54:06;5.47;;;1.60;;
77726;SDS011;68312;53.502;10.030;2023-09-19T03:56:32;3.90;;;1.13;;
77726;SDS011;68312;53.502;10.030;2023-09-19T03:58:58;3.50;;;1.30;;
77726;SDS011;68312;53.502;10.030;2023-09-19T04:01:24;9.35;;;1.30;;
77726;SDS011;68312;53.502;10.030;2023-09-19T04:03:49;3.28;;;1.23;;
77726;SDS011;68312;53.502;10.030;2023-09-19T04:06:16;7.57;;;1.30;;
77726;SDS011;68312;53.502;10.030;2023-09-19T04:08:42;4.97;;;0.98;;
77726;SDS011;68312;53.502;10.030;2023-09-19T04:11:09;4.75;;;1.17;;
77726;SDS011;68312;53.502;10.030;2023-09-19T04:13:35;4.43;;;0.98;;
77726;SDS011;68312;53.502;10.030;2023-09-19T04:16:02;3.95;;;1.00;;
77726;SDS011;68312;53.502;10.030;2023-09-19T04:18:32;4.38;;;1.00;;
77726;SDS011;68312;53.502;10.030;2023-09-19T04:21:02;5.68;;;1.77;;
77726;SDS011;68312;53.502;10.030;2023-09-19T04:23:29;5.53;;;1.10;;
77726;SDS011;68312;53.502;10.030;2023-09-19T04:25:54;3.97;;;1.25;;
77726;SDS011;68312;53.502;10.030;2023-09-19T04:28:20;3.47;;;0.95;;
77726;SDS011;68312;53.502;10.030;2023-09-19T04:30:45;5.32;;;1.20;;
77726;SDS011;68312;53.502;10.030;2023-09-19T04:33:10;3.08;;;1.00;;
77726;SDS011;68312;53.502;10.030;2023-09-19T04:35:39;4.50;;;1.30;;
77726;SDS011;68312;53.502;10.030;2023-09-19T04:38:07;6.43;;;1.20;;
77726;SDS011;68312;53.502;10.030;2023-09-19T04:40:33;5.30;;;1.05;;
77726;SDS011;68312;53.502;10.030;2023-09-19T04:42:59;6.32;;;1.13;;
77726;SDS011;68312;53.502;10.030;2023-09-19T04:45:25;4.80;;;1.30;;
77726;SDS011;68312;53.502;10.030;2023-09-19T04:47:53;3.97;;;1.10;;
77726;SDS011;68312;53.502;10.030;2023-09-19T04:50:19;4.05;;;0.95;;
77726;SDS011;68312;53.502;10.030;2023-09-19T04:52:46;4.93;;;0.98;;
77726;SDS011;68312;53.502;10.030;2023-09-19T04:55:16;6.20;;;1.52;;
77726;SDS011;68312;53.502;10.030;2023-09-19T04:57:43;5.40;;;1.50;;
77726;SDS011;68312;53.502;10.030;2023-09-19T05:00:13;4.68;;;1.10;;
77726;SDS011;68312;53.502;10.030;2023-09-19T05:02:44;5.78;;;1.00;;
77726;SDS011;68312;53.502;10.030;2023-09-19T05:05:10;7.63;;;1.52;;
77726;SDS011;68312;53.502;10.030;2023-09-19T05:07:36;4.20;;;1.35;;
77726;SDS011;68312;53.502;10.030;2023-09-19T05:10:02;10.07;;;1.17;;
77726;SDS011;68312;53.502;10.030;2023-09-19T05:12:31;3.05;;;0.90;;
77726;SDS011;68312;53.502;10.030;2023-09-19T05:15:00;3.60;;;1.05;;
77726;SDS011;68312;53.502;10.030;2023-09-19T05:17:30;6.53;;;1.27;;
77726;SDS011;68312;53.502;10.030;2023-09-19T05:19:56;6.38;;;1.20;;
77726;SDS011;68312;53.502;10.030;2023-09-19T05:22:22;7.25;;;1.48;;
77726;SDS011;68312;53.502;10.030;2023-09-19T05:24:49;6.25;;;1.08;;
77726;SDS011;68312;53.502;10.030;2023-09-19T05:27:16;3.97;;;1.27;;
77726;SDS011;68312;53.502;10.030;2023-09-19T05:29:45;4.43;;;1.20;;
77726;SDS011;68312;53.502;10.030;2023-09-19T05:32:10;5.35;;;1.20;;
77726;SDS011;68312;53.502;10.030;2023-09-19T05:34:37;6.60;;;1.10;;
77726;SDS011;68312;53.502;10.030;2023-09-19T05:37:22;7.65;;;1.27;;
77726;SDS011;68312;53.502;10.030;2023-09-19T05:39:51;5.32;;;1.40;;
77726;SDS011;68312;53.502;10.030;2023-09-19T05:42:18;5.57;;;1.45;;
77726;SDS011;68312;53.502;10.030;2023-09-19T05:44:43;5.05;;;1.40;;
77726;SDS011;68312;53.502;10.030;2023-09-19T05:47:08;4.78;;;1.25;;
77726;SDS011;68312;53.502;10.030;2023-09-19T05:49:35;9.65;;;1.52;;
77726;SDS011;68312;53.502;10.030;2023-09-19T05:52:04;6.97;;;1.15;;
77726;SDS011;68312;53.502;10.030;2023-09-19T05:54:31;8.15;;;1.85;;
77726;SDS011;68312;53.502;10.030;2023-09-19T05:56:59;7.55;;;1.23;;
77726;SDS011;68312;53.502;10.030;2023-09-19T05:59:26;5.25;;;1.02;;
77726;SDS011;68312;53.502;10.030;2023-09-19T06:01:52;3.92;;;1.42;;
77726;SDS011;68312;53.502;10.030;2023-09-19T06:04:17;5.57;;;1.77;;
77726;SDS011;68312;53.502;10.030;2023-09-19T06:06:44;5.03;;;1.50;;
77726;SDS011;68312;53.502;10.030;2023-09-19T06:09:10;2.38;;;1.13;;
77726;SDS011;68312;53.502;10.030;2023-09-19T06:11:35;5.07;;;1.60;;
77726;SDS011;68312;53.502;10.030;2023-09-19T06:14:01;4.35;;;1.00;;
77726;SDS011;68312;53.502;10.030;2023-09-19T06:16:28;5.20;;;1.48;;
77726;SDS011;68312;53.502;10.030;2023-09-19T06:18:56;5.07;;;1.70;;
77726;SDS011;68312;53.502;10.030;2023-09-19T06:21:22;8.68;;;1.35;;
77726;SDS011;68312;53.502;10.030;2023-09-19T06:23:48;7.85;;;1.50;;
77726;SDS011;68312;53.502;10.030;2023-09-19T06:26:14;5.10;;;1.40;;
77726;SDS011;68312;53.502;10.030;2023-09-19T06:28:39;7.07;;;1.40;;
77726;SDS011;68312;53.502;10.030;2023-09-19T06:31:05;7.30;;;1.40;;
77726;SDS011;68312;53.502;10.030;2023-09-19T06:33:34;5.60;;;1.08;;
77726;SDS011;68312;53.502;10.030;2023-09-19T06:36:03;6.60;;;1.30;;
77726;SDS011;68312;53.502;10.030;2023-09-19T06:38:30;3.08;;;1.40;;
77726;SDS011;68312;53.502;10.030;2023-09-19T06:40:58;9.85;;;1.48;;
77726;SDS011;68312;53.502;10.030;2023-09-19T06:43:23;6.65;;;1.30;;
77726;SDS011;68312;53.502;10.030;2023-09-19T06:45:49;4.75;;;1.40;;
77726;SDS011;68312;53.502;10.030;2023-09-19T06:48:17;4.88;;;1.33;;
77726;SDS011;68312;53.502;10.030;2023-09-19T06:50:43;5.68;;;1.45;;
77726;SDS011;68312;53.502;10.030;2023-09-19T06:53:09;5.75;;;1.30;;
77726;SDS011;68312;53.502;10.030;2023-09-19T06:55:35;5.47;;;1.65;;
77726;SDS011;68312;53.502;10.030;2023-09-19T06:58:01;4.13;;;1.33;;
77726;SDS011;68312;53.502;10.030;2023-09-19T07:00:27;3.88;;;0.93;;
77726;SDS011;68312;53.502;10.030;2023-09-19T07:02:59;6.82;;;1.55;;
77726;SDS011;68312;53.502;10.030;2023-09-19T07:05:33;10.63;;;1.75;;
77726;SDS011;68312;53.502;10.030;2023-09-19T07:08:02;7.55;;;1.58;;
77726;SDS011;68312;53.502;10.030;2023-09-19T07:10:28;7.70;;;1.38;;
77726;SDS011;68312;53.502;10.030;2023-09-19T07:15:28;6.80;;;1.40;;
77726;SDS011;68312;53.502;10.030;2023-09-19T07:17:58;3.08;;;1.20;;
77726;SDS011;68312;53.502;10.030;2023-09-19T07:20:25;3.10;;;1.58;;
77726;SDS011;68312;53.502;10.030;2023-09-19T07:22:52;4.55;;;1.40;;
77726;SDS011;68312;53.502;10.030;2023-09-19T07:25:20;8.00;;;1.55;;
77726;SDS011;68312;53.502;10.030;2023-09-19T07:27:46;7.25;;;1.83;;
77726;SDS011;68312;53.502;10.030;2023-09-19T07:30:11;5.63;;;1.40;;
77726;SDS011;68312;53.502;10.030;2023-09-19T07:32:38;6.30;;;1.63;;
77726;SDS011;68312;53.502;10.030;2023-09-19T07:35:04;8.88;;;2.30;;
77726;SDS011;68312;53.502;10.030;2023-09-19T07:37:33;7.43;;;1.83;;
77726;SDS011;68312;53.502;10.030;2023-09-19T07:40:00;11.45;;;2.45;;
77726;SDS011;68312;53.502;10.030;2023-09-19T07:42:26;6.15;;;1.48;;
77726;SDS011;68312;53.502;10.030;2023-09-19T07:44:52;6.25;;;1.88;;
77726;SDS011;68312;53.502;10.030;2023-09-19T07:47:19;5.97;;;1.60;;
77726;SDS011;68312;53.502;10.030;2023-09-19T07:49:49;7.38;;;1.90;;
77726;SDS011;68312;53.502;10.030;2023-09-19T07:52:14;5.13;;;1.80;;
77726;SDS011;68312;53.502;10.030;2023-09-19T07:54:41;3.85;;;1.70;;
77726;SDS011;68312;53.502;10.030;2023-09-19T07:57:09;5.55;;;1.70;;
77726;SDS011;68312;53.502;10.030;2023-09-19T07:59:35;7.65;;;1.48;;
77726;SDS011;68312;53.502;10.030;2023-09-19T08:02:03;13.07;;;2.03;;
77726;SDS011;68312;53.502;10.030;2023-09-19T08:04:29;10.32;;;1.60;;
77726;SDS011;68312;53.502;10.030;2023-09-19T08:06:57;6.85;;;1.88;;
77726;SDS011;68312;53.502;10.030;2023-09-19T08:09:25;7.57;;;1.80;;
77726;SDS011;68312;53.502;10.030;2023-09-19T08:11:51;7.95;;;1.48;;
77726;SDS011;68312;53.502;10.030;2023-09-19T08:14:16;10.38;;;1.60;;
77726;SDS011;68312;53.502;10.030;2023-09-19T08:16:42;7.82;;;1.88;;
77726;SDS011;68312;53.502;10.030;2023-09-19T08:19:08;8.77;;;1.75;;
77726;SDS011;68312;53.502;10.030;2023-09-19T08:21:35;7.60;;;1.98;;
77726;SDS011;68312;53.502;10.030;2023-09-19T08:24:01;8.05;;;1.85;;
77726;SDS011;68312;53.502;10.030;2023-09-19T08:26:30;10.70;;;2.15;;
77726;SDS011;68312;53.502;10.030;2023-09-19T08:28:56;5.78;;;1.80;;
77726;SDS011;68312;53.502;10.030;2023-09-19T08:31:22;6.18;;;2.08;;
77726;SDS011;68312;53.502;10.030;2023-09-19T08:33:48;9.23;;;1.98;;
77726;SDS011;68312;53.502;10.030;2023-09-19T08:36:16;7.82;;;1.90;;
77726;SDS011;68312;53.502;10.030;2023-09-19T08:38:42;5.78;;;1.80;;
77726;SDS011;68312;53.502;10.030;2023-09-19T08:41:08;7.10;;;1.73;;
77726;SDS011;68312;53.502;10.030;2023-09-19T08:43:34;5.47;;;1.75;;
77726;SDS011;68312;53.502;10.030;2023-09-19T08:46:16;6.38;;;1.70;;
77726;SDS011;68312;53.502;10.030;2023-09-19T08:53:01;7.85;;;1.83;;
77726;SDS011;68312;53.502;10.030;2023-09-19T08:55:06;9.85;;;1.58;;
77726;SDS011;68312;53.502;10.030;2023-09-19T08:57:35;5.55;;;1.67;;
77726;SDS011;68312;53.502;10.030;2023-09-19T09:00:06;5.80;;;1.70;;
77726;SDS011;68312;53.502;10.030;2023-09-19T09:02:40;8.80;;;1.95;;
77726;SDS011;68312;53.502;10.030;2023-09-19T09:05:08;5.20;;;1.40;;
77726;SDS011;68312;53.502;10.030;2023-09-19T09:07:36;7.28;;;1.80;;
77726;SDS011;68312;53.502;10.030;2023-09-19T09:10:02;7.15;;;1.40;;
77726;SDS011;68312;53.502;10.030;2023-09-19T09:12:29;6.45;;;1.50;;
77726;SDS011;68312;53.502;10.030;2023-09-19T09:14:55;13.18;;;1.92;;
77726;SDS011;68312;53.502;10.030;2023-09-19T09:17:22;7.70;;;1.67;;
77726;SDS011;68312;53.502;10.030;2023-09-19T09:19:53;9.93;;;1.55;;
77726;SDS011;68312;53.502;10.030;2023-09-19T09:22:19;5.45;;;1.50;;
77726;SDS011;68312;53.502;10.030;2023-09-19T09:24:55;6.25;;;1.50;;
77726;SDS011;68312;53.502;10.030;2023-09-19T09:27:29;6.82;;;1.45;;
77726;SDS011;68312;53.502;10.030;2023-09-19T09:29:54;6.70;;;1.67;;
77726;SDS011;68312;53.502;10.030;2023-09-19T09:32:21;7.63;;;1.10;;
77726;SDS011;68312;53.502;10.030;2023-09-19T09:34:50;9.77;;;1.40;;
77726;SDS011;68312;53.502;10.030;2023-09-19T09:37:23;7.53;;;1.40;;
77726;SDS011;68312;53.502;10.030;2023-09-19T09:39:57;7.10;;;1.85;;
77726;SDS011;68312;53.502;10.030;2023-09-19T09:42:44;9.77;;;1.90;;
77726;SDS011;68312;53.502;10.030;2023-09-19T09:45:20;9.53;;;1.60;;
77726;SDS011;68312;53.502;10.030;2023-09-19T09:48:00;7.35;;;1.70;;
77726;SDS011;68312;53.502;10.030;2023-09-19T09:50:39;4.57;;;1.23;;
77726;SDS011;68312;53.502;10.030;2023-09-19T09:53:26;7.78;;;1.40;;
77726;SDS011;68312;53.502;10.030;2023-09-19T09:58:31;4.50;;;1.15;;
77726;SDS011;68312;53.502;10.030;2023-09-19T10:01:03;9.63;;;1.70;;
77726;SDS011;68312;53.502;10.030;2023-09-19T10:03:40;5.00;;;1.40;;
77726;SDS011;68312;53.502;10.030;2023-09-19T10:06:13;3.80;;;0.97;;
77726;SDS011;68312;53.502;10.030;2023-09-19T10:09:01;6.00;;;1.27;;
77726;SDS011;68312;53.502;10.030;2023-09-19T10:11:41;6.30;;;1.33;;
77726;SDS011;68312;53.502;10.030;2023-09-19T10:14:25;7.35;;;1.30;;
77726;SDS011;68312;53.502;10.030;2023-09-19T10:16:56;8.15;;;1.23;;
77726;SDS011;68312;53.502;10.030;2023-09-19T10:19:42;4.07;;;1.13;;
77726;SDS011;68312;53.502;10.030;2023-09-19T10:22:22;3.40;;;1.08;;
77726;SDS011;68312;53.502;10.030;2023-09-19T10:24:52;4.35;;;1.23;;
77726;SDS011;68312;53.502;10.030;2023-09-19T10:27:20;3.78;;;1.25;;
77726;SDS011;68312;53.502;10.030;2023-09-19T10:29:48;9.73;;;1.05;;
77726;SDS011;68312;53.502;10.030;2023-09-19T10:32:20;5.28;;;1.20;;
77726;SDS011;68312;53.502;10.030;2023-09-19T10:34:48;5.63;;;1.23;;
77726;SDS011;68312;53.502;10.030;2023-09-19T10:37:18;6.07;;;1.13;;
77726;SDS011;68312;53.502;10.030;2023-09-19T10:39:50;4.60;;;1.15;;
77726;SDS011;68312;53.502;10.030;2023-09-19T10:42:18;7.93;;;1.42;;
77726;SDS011;68312;53.502;10.030;2023-09-19T10:44:45;8.45;;;1.25;;
77726;SDS011;68312;53.502;10.030;2023-09-19T10:47:18;4.50;;;1.10;;
77726;SDS011;68312;53.502;10.030;2023-09-19T10:49:45;4.43;;;0.93;;
77726;SDS011;68312;53.502;10.030;2023-09-19T10:52:15;9.77;;;1.90;;
77726;SDS011;68312;53.502;10.030;2023-09-19T10:54:49;6.78;;;1.55;;
77726;SDS011;68312;53.502;10.030;2023-09-19T10:57:22;5.38;;;1.42;;
77726;SDS011;68312;53.502;10.030;2023-09-19T11:00:07;3.90;;;1.23;;
77726;SDS011;68312;53.502;10.030;2023-09-19T11:30:30;3.47;;;0.82;;
77726;SDS011;68312;53.502;10.030;2023-09-19T11:33:16;5.32;;;1.30;;
77726;SDS011;68312;53.502;10.030;2023-09-19T11:46:24;8.07;;;1.27;;
77726;SDS011;68312;53.502;10.030;2023-09-19T11:48:50;5.05;;;1.15;;
77726;SDS011;68312;53.502;10.030;2023-09-19T11:51:17;6.15;;;1.40;;
77726;SDS011;68312;53.502;10.030;2023-09-19T11:53:49;8.27;;;1.25;;
77726;SDS011;68312;53.502;10.030;2023-09-19T11:56:17;4.72;;;1.30;;
77726;SDS011;68312;53.502;10.030;2023-09-19T11:58:53;9.93;;;1.48;;
77726;SDS011;68312;53.502;10.030;2023-09-19T12:01:21;5.30;;;1.08;;
77726;SDS011;68312;53.502;10.030;2023-09-19T12:04:00;9.52;;;1.48;;
77726;SDS011;68312;53.502;10.030;2023-09-19T12:06:29;8.80;;;1.75;;
77726;SDS011;68312;53.502;10.030;2023-09-19T12:08:57;8.68;;;1.90;;
77726;SDS011;68312;53.502;10.030;2023-09-19T12:11:27;5.07;;;1.30;;
77726;SDS011;68312;53.502;10.030;2023-09-19T12:14:00;6.53;;;1.20;;
77726;SDS011;68312;53.502;10.030;2023-09-19T12:16:27;5.20;;;1.50;;
77726;SDS011;68312;53.502;10.030;2023-09-19T12:18:56;6.20;;;1.35;;
77726;SDS011;68312;53.502;10.030;2023-09-19T12:21:23;7.35;;;1.60;;
77726;SDS011;68312;53.502;10.030;2023-09-19T12:26:44;3.00;;;1.17;;
77726;SDS011;68312;53.502;10.030;2023-09-19T12:31:51;7.25;;;1.55;;
77726;SDS011;68312;53.502;10.030;2023-09-19T12:34:29;6.65;;;1.52;;
77726;SDS011;68312;53.502;10.030;2023-09-19T12:37:09;7.95;;;1.25;;
77726;SDS011;68312;53.502;10.030;2023-09-19T12:39:48;4.60;;;1.17;;
77726;SDS011;68312;53.502;10.030;2023-09-19T12:42:18;9.23;;;1.27;;
77726;SDS011;68312;53.502;10.030;2023-09-19T12:44:50;6.75;;;1.40;;
77726;SDS011;68312;53.502;10.030;2023-09-19T12:47:25;7.50;;;1.60;;
77726;SDS011;68312;53.502;10.030;2023-09-19T12:50:05;8.15;;;1.45;;
77726;SDS011;68312;53.502;10.030;2023-09-19T12:52:50;3.33;;;0.95;;
77726;SDS011;68312;53.502;10.030;2023-09-19T12:55:24;7.88;;;1.20;;
77726;SDS011;68312;53.502;10.030;2023-09-19T13:00:40;8.20;;;1.48;;
77726;SDS011;68312;53.502;10.030;2023-09-19T13:03:26;8.75;;;1.98;;
77726;SDS011;68312;53.502;10.030;2023-09-19T13:06:02;4.78;;;1.23;;
77726;SDS011;68312;53.502;10.030;2023-09-19T13:08:35;4.95;;;1.50;;
77726;SDS011;68312;53.502;10.030;2023-09-19T13:11:05;5.18;;;1.50;;
77726;SDS011;68312;53.502;10.030;2023-09-19T13:13:40;8.27;;;1.30;;
77726;SDS011;68312;53.502;10.030;2023-09-19T13:16:19;6.85;;;1.30;;
77726;SDS011;68312;53.502;10.030;2023-09-19T13:18:50;6.80;;;1.52;;
77726;SDS011;68312;53.502;10.030;2023-09-19T13:21:35;3.92;;;1.35;;
77726;SDS011;68312;53.502;10.030;2023-09-19T13:27:33;6.22;;;1.55;;
77726;SDS011;68312;53.502;10.030;2023-09-19T13:29:59;4.55;;;1.30;;
77726;SDS011;68312;53.502;10.030;2023-09-19T13:32:25;7.85;;;1.13;;
77726;SDS011;68312;53.502;10.030;2023-09-19T13:34:51;5.85;;;1.42;;
77726;SDS011;68312;53.502;10.030;2023-09-19T13:37:16;6.40;;;1.35;;
77726;SDS011;68312;53.502;10.030;2023-09-19T13:39:45;8.48;;;1.38;;
77726;SDS011;68312;53.502;10.030;2023-09-19T13:42:12;10.45;;;1.42;;
77726;SDS011;68312;53.502;10.030;2023-09-19T13:44:38;3.60;;;1.00;;
77726;SDS011;68312;53.502;10.030;2023-09-19T13:47:06;6.45;;;1.33;;
77726;SDS011;68312;53.502;10.030;2023-09-19T13:49:35;6.40;;;1.40;;
77726;SDS011;68312;53.502;10.030;2023-09-19T13:52:03;9.02;;;1.35;;
77726;SDS011;68312;53.502;10.030;2023-09-19T13:54:30;5.65;;;1.40;;
77726;SDS011;68312;53.502;10.030;2023-09-19T13:56:56;7.28;;;1.67;;
77726;SDS011;68312;53.502;10.030;2023-09-19T13:59:21;4.68;;;1.20;;
77726;SDS011;68312;53.502;10.030;2023-09-19T14:01:48;5.53;;;1.55;;
77726;SDS011;68312;53.502;10.030;2023-09-19T14:04:15;8.88;;;1.77;;
77726;SDS011;68312;53.502;10.030;2023-09-19T14:06:42;7.57;;;1.40;;
77726;SDS011;68312;53.502;10.030;2023-09-19T14:09:08;4.07;;;1.40;;
77726;SDS011;68312;53.502;10.030;2023-09-19T14:11:35;3.78;;;1.30;;
77726;SDS011;68312;53.502;10.030;2023-09-19T14:14:00;5.35;;;1.58;;
77726;SDS011;68312;53.502;10.030;2023-09-19T14:16:26;4.60;;;1.17;;
77726;SDS011;68312;53.502;10.030;2023-09-19T14:18:55;4.47;;;1.10;;
77726;SDS011;68312;53.502;10.030;2023-09-19T14:21:20;6.18;;;1.10;;
77726;SDS011;68312;53.502;10.030;2023-09-19T14:23:45;6.03;;;1.20;;
77726;SDS011;68312;53.502;10.030;2023-09-19T14:26:11;6.72;;;1.40;;
77726;SDS011;68312;53.502;10.030;2023-09-19T14:28:37;6.05;;;1.67;;
77726;SDS011;68312;53.502;10.030;2023-09-19T14:31:07;7.57;;;1.65;;
77726;SDS011;68312;53.502;10.030;2023-09-19T14:33:34;5.57;;;1.35;;
77726;SDS011;68312;53.502;10.030;2023-09-19T14:36:03;4.85;;;1.30;;
77726;SDS011;68312;53.502;10.030;2023-09-19T14:38:35;4.57;;;1.30;;
77726;SDS011;68312;53.502;10.030;2023-09-19T14:41:02;4.35;;;1.10;;
77726;SDS011;68312;53.502;10.030;2023-09-19T14:43:30;5.47;;;1.73;;
77726;SDS011;68312;53.502;10.030;2023-09-19T14:46:01;5.65;;;1.50;;
77726;SDS011;68312;53.502;10.030;2023-09-19T14:48:28;5.22;;;1.70;;
77726;SDS011;68312;53.502;10.030;2023-09-19T14:50:54;4.10;;;1.15;;
77726;SDS011;68312;53.502;10.030;2023-09-19T14:53:20;7.07;;;1.60;;
77726;SDS011;68312;53.502;10.030;2023-09-19T14:55:46;5.55;;;1.13;;
77726;SDS011;68312;53.502;10.030;2023-09-19T14:58:16;5.13;;;1.42;;
77726;SDS011;68312;53.502;10.030;2023-09-19T15:00:42;5.80;;;1.70;;
77726;SDS011;68312;53.502;10.030;2023-09-19T15:03:10;6.88;;;1.77;;
77726;SDS011;68312;53.502;10.030;2023-09-19T15:05:36;4.55;;;1.40;;
77726;SDS011;68312;53.502;10.030;2023-09-19T15:08:02;5.35;;;1.60;;
77726;SDS011;68312;53.502;10.030;2023-09-19T15:10:28;9.35;;;1.40;;
77726;SDS011;68312;53.502;10.030;2023-09-19T15:12:53;10.68;;;1.40;;
77726;SDS011;68312;53.502;10.030;2023-09-19T15:15:19;4.32;;;1.30;;
77726;SDS011;68312;53.502;10.030;2023-09-19T15:17:44;8.48;;;1.92;;
77726;SDS011;68312;53.502;10.030;2023-09-19T15:20:10;6.47;;;1.42;;
77726;SDS011;68312;53.502;10.030;2023-09-19T15:22:38;8.38;;;1.73;;
77726;SDS011;68312;53.502;10.030;2023-09-19T15:25:04;6.35;;;1.60;;
77726;SDS011;68312;53.502;10.030;2023-09-19T15:27:31;8.77;;;2.20;;
77726;SDS011;68312;53.502;10.030;2023-09-19T15:29:58;5.68;;;1.77;;
77726;SDS011;68312;53.502;10.030;2023-09-19T15:32:25;6.68;;;1.92;;
77726;SDS011;68312;53.502;10.030;2023-09-19T15:34:51;13.07;;;1.77;;
77726;SDS011;68312;53.502;10.030;2023-09-19T15:37:17;9.35;;;2.03;;
77726;SDS011;68312;53.502;10.030;2023-09-19T15:39:42;2.83;;;1.63;;
77726;SDS011;68312;53.502;10.030;2023-09-19T15:42:09;11.25;;;2.58;;
77726;SDS011;68312;53.502;10.030;2023-09-19T15:44:35;6.20;;;1.73;;
77726;SDS011;68312;53.502;10.030;2023-09-19T15:47:01;7.50;;;2.30;;
77726;SDS011;68312;53.502;10.030;2023-09-19T15:49:28;7.05;;;2.78;;
77726;SDS011;68312;53.502;10.030;2023-09-19T15:51:53;4.13;;;1.73;;
77726;SDS011;68312;53.502;10.030;2023-09-19T15:54:19;3.42;;;1.80;;
77726;SDS011;68312;53.502;10.030;2023-09-19T15:56:45;4.65;;;1.95;;